createdAt,value
2018-11-25T00:00:12.579Z,46.40
2018-11-25T00:02:39.980Z,40.00
2018-11-25T00:05:32.573Z,43.90
2018-11-25T00:07:37.766Z,44.73
2018-11-25T00:10:05.201Z,44.97
2018-11-25T00:12:32.633Z,49.73
2018-11-25T00:15:00.089Z,40.80
2018-11-25T00:17:27.509Z,48.77
2018-11-25T00:19:54.966Z,51.97
2018-11-25T00:22:22.366Z,47.20
2018-11-25T00:24:49.795Z,43.10
2018-11-25T00:27:17.218Z,41.90
2018-11-25T00:29:44.644Z,41.97
2018-11-25T00:32:12.068Z,54.33
2018-11-25T00:34:39.483Z,44.10
2018-11-25T00:37:06.927Z,43.03
2018-11-25T00:39:34.389Z,52.80
2018-11-25T00:42:01.828Z,51.67
2018-11-25T00:44:29.231Z,42.13
2018-11-25T00:46:56.689Z,46.47
2018-11-25T00:49:24.097Z,47.30
2018-11-25T00:51:51.558Z,50.33
2018-11-25T00:54:18.975Z,46.10
2018-11-25T00:56:46.404Z,57.53
2018-11-25T00:59:13.830Z,56.17
2018-11-25T01:01:41.263Z,43.07
2018-11-25T01:04:08.702Z,47.27
2018-11-25T01:06:36.114Z,52.60
2018-11-25T01:09:03.699Z,59.73
2018-11-25T01:11:31.139Z,46.87
2018-11-25T01:13:58.564Z,69.13
2018-11-25T01:16:25.979Z,53.43
2018-11-25T01:18:53.430Z,51.77
2018-11-25T01:21:20.859Z,54.30
2018-11-25T01:23:48.346Z,52.67
2018-11-25T01:26:19.625Z,52.67
2018-11-25T01:28:47.089Z,43.60
2018-11-25T01:31:14.494Z,41.97
2018-11-25T01:33:42.124Z,53.50
2018-11-25T01:36:09.476Z,51.60
2018-11-25T01:38:36.910Z,51.30
2018-11-25T01:41:04.347Z,47.47
2018-11-25T01:43:31.753Z,56.63
2018-11-25T01:45:59.196Z,53.50
2018-11-25T01:48:26.650Z,50.97
2018-11-25T01:50:54.111Z,58.33
2018-11-25T01:53:21.510Z,57.83
2018-11-25T01:55:48.953Z,65.23
2018-11-25T01:58:16.340Z,61.97
2018-11-25T02:00:43.756Z,57.03
2018-11-25T02:03:11.211Z,57.13
2018-11-25T02:05:38.608Z,57.23
2018-11-25T02:08:06.041Z,48.90
2018-11-25T02:10:33.458Z,55.10
2018-11-25T02:13:00.886Z,58.27
2018-11-25T02:15:28.338Z,51.13
2018-11-25T02:17:55.761Z,54.67
2018-11-25T02:20:23.219Z,48.43
2018-11-25T02:22:50.646Z,54.33
2018-11-25T02:25:18.069Z,64.80
2018-11-25T02:27:45.505Z,59.40
2018-11-25T02:30:12.918Z,44.67
2018-11-25T02:32:40.369Z,57.27
2018-11-25T02:35:07.802Z,58.90
2018-11-25T02:37:35.240Z,50.30
2018-11-25T02:40:02.673Z,63.20
2018-11-25T02:42:30.124Z,48.43
2018-11-25T02:44:57.549Z,46.23
2018-11-25T02:47:24.988Z,67.90
2018-11-25T02:49:52.435Z,56.17
2018-11-25T02:52:19.918Z,63.80
2018-11-25T02:54:47.380Z,55.17
2018-11-25T02:57:14.803Z,61.63
2018-11-25T02:59:42.243Z,61.90
2018-11-25T03:02:09.650Z,58.77
2018-11-25T03:04:37.078Z,55.47
2018-11-25T03:07:04.494Z,63.03
2018-11-25T03:09:31.934Z,53.63
2018-11-25T03:11:59.357Z,54.23
2018-11-25T03:14:26.792Z,54.30
2018-11-25T03:16:54.200Z,51.10
2018-11-25T03:19:21.641Z,60.37
2018-11-25T03:21:49.071Z,60.40
2018-11-25T03:24:16.511Z,52.23
2018-11-25T03:26:43.919Z,47.87
2018-11-25T03:29:11.353Z,49.53
2018-11-25T03:31:38.783Z,55.77
2018-11-25T03:34:06.199Z,55.63
2018-11-25T03:36:33.613Z,54.00
2018-11-25T03:39:01.069Z,69.80
2018-11-25T03:41:28.504Z,48.83
2018-11-25T03:43:55.914Z,47.33
2018-11-25T03:46:23.360Z,52.80
2018-11-25T03:48:50.789Z,58.27
2018-11-25T03:51:18.228Z,57.33
2018-11-25T03:53:45.636Z,43.27
2018-11-25T03:56:13.083Z,46.90
2018-11-25T03:58:40.555Z,61.07
2018-11-25T04:01:07.975Z,69.60
2018-11-25T04:03:35.408Z,48.87
2018-11-25T04:06:02.813Z,53.43
2018-11-25T04:08:30.241Z,51.33
2018-11-25T04:10:57.644Z,53.00
2018-11-25T04:13:25.079Z,45.70
2018-11-25T04:15:52.541Z,50.37
2018-11-25T04:18:19.951Z,46.37
2018-11-25T04:20:47.402Z,50.63
2018-11-25T04:23:14.810Z,54.73
2018-11-25T04:25:42.267Z,52.83
2018-11-25T04:28:09.665Z,51.80
2018-11-25T04:30:37.117Z,49.60
2018-11-25T04:33:04.529Z,51.70
2018-11-25T04:35:31.955Z,54.53
2018-11-25T04:37:59.387Z,53.77
2018-11-25T04:40:26.829Z,53.53
2018-11-25T04:42:54.249Z,47.83
2018-11-25T04:45:21.655Z,51.70
2018-11-25T04:47:49.109Z,57.20
2018-11-25T04:50:16.547Z,56.40
2018-11-25T04:52:43.941Z,49.63
2018-11-25T04:55:11.386Z,57.67
2018-11-25T04:57:38.794Z,49.73
2018-11-25T05:00:06.238Z,49.07
2018-11-25T05:02:33.658Z,49.20
2018-11-25T05:05:01.119Z,44.23
2018-11-25T05:07:28.548Z,52.00
2018-11-25T05:09:55.976Z,54.67
2018-11-25T05:12:23.405Z,52.57
2018-11-25T05:14:50.830Z,58.47
2018-11-25T05:17:18.293Z,47.37
2018-11-25T05:19:45.708Z,53.00
2018-11-25T05:22:13.147Z,48.63
2018-11-25T05:24:40.541Z,53.13
2018-11-25T05:27:07.964Z,46.03
2018-11-25T05:29:35.394Z,56.43
2018-11-25T05:32:02.800Z,53.43
2018-11-25T05:34:30.251Z,54.03
2018-11-25T05:36:57.688Z,53.20
2018-11-25T05:39:25.128Z,47.00
2018-11-25T05:41:52.580Z,41.17
2018-11-25T05:44:20.005Z,48.50
2018-11-25T05:46:47.476Z,54.07
2018-11-25T05:49:14.889Z,45.03
2018-11-25T05:51:42.330Z,49.00
2018-11-25T05:54:09.753Z,51.80
2018-11-25T05:56:37.194Z,44.33
2018-11-25T05:59:04.610Z,50.67
2018-11-25T06:01:32.026Z,49.43
2018-11-25T06:03:59.435Z,51.50
2018-11-25T06:06:26.860Z,55.43
2018-11-25T06:08:54.284Z,46.37
2018-11-25T06:11:21.720Z,48.63
2018-11-25T06:13:49.126Z,45.70
2018-11-25T06:16:16.554Z,48.67
2018-11-25T06:18:43.984Z,46.47
2018-11-25T06:21:11.387Z,54.53
2018-11-25T06:23:38.828Z,57.53
2018-11-25T06:26:06.231Z,58.03
2018-11-25T06:28:33.677Z,53.93
2018-11-25T06:31:01.110Z,47.60
2018-11-25T06:33:28.556Z,44.00
2018-11-25T06:35:55.960Z,49.53
2018-11-25T06:38:24.420Z,45.73
2018-11-25T06:40:50.806Z,46.60
2018-11-25T06:43:18.240Z,48.30
2018-11-25T06:45:45.646Z,48.80
2018-11-25T06:48:13.099Z,45.03
2018-11-25T06:50:40.502Z,46.77
2018-11-25T06:53:07.954Z,45.90
2018-11-25T06:55:35.404Z,45.77
2018-11-25T06:58:02.845Z,46.10
2018-11-25T07:00:30.288Z,46.93
2018-11-25T07:02:57.721Z,45.77
2018-11-25T07:05:25.143Z,47.47
2018-11-25T07:07:52.575Z,44.80
2018-11-25T07:10:20.023Z,49.63
2018-11-25T07:12:47.432Z,50.43
2018-11-25T07:15:14.860Z,44.13
2018-11-25T07:17:42.268Z,47.37
2018-11-25T07:20:09.720Z,46.20
2018-11-25T07:22:37.182Z,38.73
2018-11-25T07:25:04.584Z,43.13
2018-11-25T07:27:32.026Z,47.57
2018-11-25T07:29:59.464Z,40.90
2018-11-25T07:32:26.889Z,43.03
2018-11-25T07:34:54.307Z,45.63
2018-11-25T07:37:21.738Z,43.87
2018-11-25T07:39:49.155Z,45.23
2018-11-25T07:42:16.627Z,48.27
2018-11-25T07:44:44.030Z,46.40
2018-11-25T07:47:11.445Z,49.57
2018-11-25T07:49:44.096Z,48.00
2018-11-25T07:52:11.551Z,44.97
2018-11-25T07:54:38.998Z,43.53
2018-11-25T07:57:12.465Z,48.37
2018-11-25T07:59:39.910Z,46.17
2018-11-25T08:02:07.343Z,44.63
2018-11-25T08:04:34.786Z,44.27
2018-11-25T08:07:02.219Z,47.13
2018-11-25T08:09:29.653Z,47.00
2018-11-25T08:11:57.109Z,46.23
2018-11-25T08:14:31.721Z,52.17
2018-11-25T08:16:57.202Z,51.87
2018-11-25T08:19:24.783Z,43.60
2018-11-25T08:21:52.520Z,46.67
2018-11-25T08:24:19.983Z,40.33
2018-11-25T08:26:47.375Z,47.40
2018-11-25T08:29:14.788Z,43.60
2018-11-25T08:31:42.770Z,41.97
2018-11-25T08:34:10.202Z,44.37
2018-11-25T08:36:37.635Z,42.43
2018-11-25T08:39:05.115Z,50.83
2018-11-25T08:41:32.523Z,43.77
2018-11-25T08:43:59.943Z,43.80
2018-11-25T08:46:27.360Z,40.13
2018-11-25T08:48:54.793Z,44.93
2018-11-25T08:51:22.210Z,41.83
2018-11-25T08:53:49.647Z,44.17
2018-11-25T08:56:17.082Z,45.90
2018-11-25T08:58:44.532Z,41.73
2018-11-25T09:01:11.969Z,37.23
2018-11-25T09:03:39.407Z,37.87
2018-11-25T09:06:06.826Z,36.37
2018-11-25T09:08:34.267Z,38.17
2018-11-25T09:11:01.696Z,34.83
2018-11-25T09:13:29.121Z,39.27
2018-11-25T09:15:56.566Z,36.60
2018-11-25T09:18:23.978Z,37.10
2018-11-25T09:20:51.392Z,35.40
2018-11-25T09:23:18.827Z,38.90
2018-11-25T09:25:46.260Z,36.40
2018-11-25T09:28:13.713Z,36.43
2018-11-25T09:30:41.138Z,34.27
2018-11-25T09:33:08.556Z,32.90
2018-11-25T09:35:35.994Z,32.53
2018-11-25T09:38:03.420Z,32.80
2018-11-25T09:40:30.893Z,32.20
2018-11-25T09:42:58.297Z,34.87
2018-11-25T09:45:25.716Z,39.47
2018-11-25T09:47:53.145Z,38.30
2018-11-25T09:50:20.580Z,39.43
2018-11-25T09:52:48.021Z,40.87
2018-11-25T09:55:15.426Z,40.67
2018-11-25T09:57:42.872Z,37.50
2018-11-25T10:00:10.317Z,34.10
2018-11-25T10:02:37.761Z,35.43
2018-11-25T10:05:05.164Z,31.80
2018-11-25T10:07:32.598Z,34.23
2018-11-25T10:10:00.015Z,37.13
2018-11-25T10:12:27.478Z,37.43
2018-11-25T10:14:54.888Z,36.87
2018-11-25T10:17:22.321Z,37.70
2018-11-25T10:19:49.770Z,37.37
2018-11-25T10:22:17.211Z,36.57
2018-11-25T10:24:44.617Z,35.83
2018-11-25T10:27:12.048Z,35.23
2018-11-25T10:29:39.443Z,33.73
2018-11-25T10:32:07.004Z,36.53
2018-11-25T10:34:34.411Z,37.33
2018-11-25T10:37:01.839Z,35.57
2018-11-25T10:39:29.262Z,33.63
2018-11-25T10:41:56.668Z,35.27
2018-11-25T10:44:24.156Z,34.27
2018-11-25T10:46:51.524Z,34.40
2018-11-25T10:49:18.978Z,34.27
2018-11-25T10:51:46.566Z,37.47
2018-11-25T10:54:13.997Z,36.43
2018-11-25T10:56:41.408Z,34.93
2018-11-25T10:59:08.864Z,38.70
2018-11-25T11:01:36.286Z,38.90
2018-11-25T11:04:03.728Z,34.77
2018-11-25T11:06:31.146Z,34.20
2018-11-25T11:08:58.578Z,35.03
2018-11-25T11:11:25.988Z,36.93
2018-11-25T11:13:53.424Z,38.53
2018-11-25T11:16:20.832Z,40.57
2018-11-25T11:18:48.272Z,39.63
2018-11-25T11:21:15.691Z,37.77
2018-11-25T11:23:43.162Z,35.43
2018-11-25T11:26:10.609Z,33.80
2018-11-25T11:28:38.012Z,35.90
2018-11-25T11:31:05.444Z,33.70
2018-11-25T11:33:32.887Z,33.20
2018-11-25T11:36:00.312Z,32.37
2018-11-25T11:38:27.735Z,35.07
2018-11-25T11:40:55.173Z,37.10
2018-11-25T11:43:22.609Z,33.03
2018-11-25T11:45:50.072Z,32.40
2018-11-25T11:48:17.511Z,31.70
2018-11-25T11:50:44.977Z,29.70
2018-11-25T11:53:12.365Z,30.70
2018-11-25T11:55:41.192Z,30.30
2018-11-25T11:58:08.650Z,29.70
2018-11-25T12:00:36.072Z,29.27
2018-11-25T12:03:03.504Z,30.07
2018-11-25T12:05:30.932Z,28.73
2018-11-25T12:07:58.366Z,29.80
2018-11-25T12:10:25.792Z,30.87
2018-11-25T12:12:53.241Z,30.23
2018-11-25T12:15:20.667Z,31.20
2018-11-25T12:17:48.124Z,28.80
2018-11-25T12:20:15.543Z,26.83
2018-11-25T12:22:42.999Z,29.83
2018-11-25T12:25:10.400Z,29.50
2018-11-25T12:27:37.822Z,28.23
2018-11-25T12:30:05.266Z,29.27
2018-11-25T12:32:32.693Z,27.50
2018-11-25T12:35:00.196Z,27.70
2018-11-25T12:37:27.622Z,26.17
2018-11-25T12:39:55.034Z,27.50
2018-11-25T12:42:22.476Z,29.10
2018-11-25T12:44:49.924Z,30.47
2018-11-25T12:47:17.297Z,32.07
2018-11-25T12:49:44.738Z,30.70
2018-11-25T12:52:12.157Z,33.13
2018-11-25T12:54:39.588Z,31.43
2018-11-25T12:57:06.984Z,30.53
2018-11-25T12:59:34.486Z,32.27
2018-11-25T13:02:01.900Z,30.20
2018-11-25T13:04:29.297Z,33.03
2018-11-25T13:06:56.748Z,30.63
2018-11-25T13:09:24.194Z,32.10
2018-11-25T13:11:52.449Z,33.00
2018-11-25T13:14:19.922Z,31.83
2018-11-25T13:16:47.327Z,32.00
2018-11-25T13:19:14.776Z,28.27
2018-11-25T13:21:42.195Z,28.63
2018-11-25T13:24:09.671Z,27.97
2018-11-25T13:26:37.021Z,27.27
2018-11-25T13:29:04.545Z,28.20
2018-11-25T13:31:31.941Z,25.17
2018-11-25T13:33:59.403Z,28.97
2018-11-25T13:36:26.816Z,29.23
2018-11-25T13:38:54.482Z,28.87
2018-11-25T13:41:21.904Z,28.03
2018-11-25T13:43:49.374Z,27.67
2018-11-25T13:46:16.829Z,28.37
2018-11-25T13:48:44.222Z,28.60
2018-11-25T13:51:11.630Z,30.07
2018-11-25T13:53:39.170Z,28.67
2018-11-25T13:56:06.607Z,26.83
2018-11-25T13:58:34.007Z,28.20
2018-11-25T14:01:01.466Z,27.27
2018-11-25T14:03:28.887Z,26.10
2018-11-25T14:05:56.374Z,25.97
2018-11-25T14:08:23.786Z,24.83
2018-11-25T14:10:51.261Z,26.30
2018-11-25T14:13:23.169Z,25.07
2018-11-25T14:15:49.411Z,24.17
2018-11-25T14:18:16.831Z,26.67
2018-11-25T14:20:44.273Z,25.87
2018-11-25T14:23:11.677Z,24.30
2018-11-25T14:25:39.095Z,26.80
2018-11-25T14:28:06.552Z,25.33
2018-11-25T14:30:33.985Z,25.03
2018-11-25T14:33:01.391Z,25.97
2018-11-25T14:35:28.829Z,25.90
2018-11-25T14:37:56.268Z,26.53
2018-11-25T14:40:23.687Z,27.87
2018-11-25T14:42:51.145Z,27.77
2018-11-25T14:45:18.551Z,27.73
2018-11-25T14:47:45.983Z,27.23
2018-11-25T14:50:13.381Z,28.60
2018-11-25T14:52:40.820Z,28.63
2018-11-25T14:55:08.238Z,30.03
2018-11-25T14:57:35.669Z,29.33
2018-11-25T15:00:03.107Z,30.33
2018-11-25T15:02:30.526Z,29.40
2018-11-25T15:04:57.959Z,31.57
2018-11-25T15:07:25.403Z,30.20
2018-11-25T15:09:52.835Z,31.13
2018-11-25T15:12:20.235Z,30.50
2018-11-25T15:14:47.672Z,30.77
2018-11-25T15:17:15.078Z,30.03
2018-11-25T15:19:42.516Z,31.50
2018-11-25T15:22:09.967Z,30.53
2018-11-25T15:24:37.359Z,30.10
2018-11-25T15:27:04.789Z,30.07
2018-11-25T15:29:32.200Z,29.60
2018-11-25T15:31:59.654Z,31.90
2018-11-25T15:34:27.093Z,32.43
2018-11-25T15:36:54.491Z,34.20
2018-11-25T15:39:21.901Z,36.03
2018-11-25T15:41:49.508Z,39.63
2018-11-25T15:44:16.881Z,40.80
2018-11-25T15:46:44.319Z,40.40
2018-11-25T15:49:11.791Z,41.87
2018-11-25T15:51:39.203Z,40.07
2018-11-25T15:54:06.650Z,40.57
2018-11-25T15:56:34.072Z,43.37
2018-11-25T15:59:01.512Z,43.20
2018-11-25T16:01:28.930Z,41.93
2018-11-25T16:03:56.382Z,40.80
2018-11-25T16:06:23.765Z,40.50
2018-11-25T16:08:51.202Z,41.07
2018-11-25T16:11:18.636Z,42.17
2018-11-25T16:13:46.061Z,40.40
2018-11-25T16:16:13.485Z,41.83
2018-11-25T16:18:40.917Z,43.17
2018-11-25T16:21:08.377Z,39.47
2018-11-25T16:23:35.783Z,41.07
2018-11-25T16:26:03.203Z,44.80
2018-11-25T16:28:30.648Z,48.17
2018-11-25T16:30:58.094Z,48.40
2018-11-25T16:33:25.517Z,46.70
2018-11-25T16:35:52.956Z,47.30
2018-11-25T16:38:20.388Z,47.57
2018-11-25T16:40:47.832Z,47.43
2018-11-25T16:43:15.234Z,49.93
2018-11-25T16:45:42.695Z,48.60
2018-11-25T16:48:10.136Z,48.47
2018-11-25T16:50:37.569Z,47.30
2018-11-25T16:53:05.019Z,44.73
2018-11-25T16:55:32.451Z,43.37
2018-11-25T16:57:59.864Z,44.13
2018-11-25T17:00:27.274Z,48.13
2018-11-25T17:02:54.718Z,50.17
2018-11-25T17:05:22.151Z,47.47
2018-11-25T17:07:49.589Z,44.50
2018-11-25T17:10:20.008Z,47.63
2018-11-25T17:12:47.448Z,47.23
2018-11-25T17:15:15.092Z,46.10
2018-11-25T17:17:42.455Z,47.23
2018-11-25T17:20:09.865Z,45.10
2018-11-25T17:22:37.304Z,47.40
2018-11-25T17:25:04.872Z,46.20
2018-11-25T17:27:32.309Z,46.53
2018-11-25T17:29:59.747Z,47.40
2018-11-25T17:32:27.185Z,54.07
2018-11-25T17:34:54.597Z,46.60
2018-11-25T17:37:22.030Z,46.30
2018-11-25T17:39:49.488Z,48.63
2018-11-25T17:42:16.917Z,46.73
2018-11-25T17:44:44.325Z,44.40
2018-11-25T17:47:11.763Z,52.37
2018-11-25T17:49:39.192Z,47.73
2018-11-25T17:52:06.639Z,52.50
2018-11-25T17:54:34.091Z,51.50
2018-11-25T17:57:01.547Z,53.13
2018-11-25T17:59:29.015Z,56.40
2018-11-25T18:01:56.508Z,53.80
2018-11-25T18:04:23.929Z,56.53
2018-11-25T18:06:51.350Z,51.37
2018-11-25T18:09:18.787Z,55.53
2018-11-25T18:11:46.223Z,55.60
2018-11-25T18:14:13.797Z,59.30
2018-11-25T18:16:41.218Z,52.37
2018-11-25T18:19:08.781Z,57.47
2018-11-25T18:21:36.194Z,54.63
2018-11-25T18:24:03.650Z,55.90
2018-11-25T18:26:31.086Z,52.10
2018-11-25T18:28:58.509Z,57.73
2018-11-25T18:31:25.951Z,54.33
2018-11-25T18:33:53.405Z,55.07
2018-11-25T18:36:20.831Z,56.57
2018-11-25T18:38:48.273Z,51.07
2018-11-25T18:41:15.715Z,53.43
2018-11-25T18:43:43.163Z,52.57
2018-11-25T18:46:10.609Z,52.23
2018-11-25T18:48:38.013Z,53.50
2018-11-25T18:51:05.471Z,57.33
2018-11-25T18:53:32.907Z,54.87
2018-11-25T18:56:00.372Z,54.83
2018-11-25T18:58:27.829Z,56.67
2018-11-25T19:00:55.249Z,56.13
2018-11-25T19:03:22.702Z,56.33
2018-11-25T19:05:50.119Z,60.83
2018-11-25T19:08:17.558Z,57.20
2018-11-25T19:10:45.028Z,53.47
2018-11-25T19:13:12.444Z,53.13
2018-11-25T19:15:39.902Z,50.43
2018-11-25T19:18:07.352Z,49.53
2018-11-25T19:20:34.792Z,56.43
2018-11-25T19:23:02.242Z,54.67
2018-11-25T19:25:29.680Z,55.70
2018-11-25T19:27:57.172Z,52.97
2018-11-25T19:30:26.589Z,53.07
2018-11-25T19:32:52.051Z,51.40
2018-11-25T19:35:19.469Z,52.83
2018-11-25T19:37:46.890Z,55.80
2018-11-25T19:40:14.338Z,53.70
2018-11-25T19:42:41.791Z,54.30
2018-11-25T19:45:09.257Z,58.07
2018-11-25T19:47:36.677Z,53.53
2018-11-25T19:50:04.309Z,53.47
2018-11-25T19:52:31.559Z,56.93
2018-11-25T19:54:59.017Z,58.47
2018-11-25T19:57:26.442Z,55.47
2018-11-25T19:59:56.734Z,61.50
2018-11-25T20:02:24.113Z,59.23
2018-11-25T20:04:51.582Z,55.17
2018-11-25T20:07:19.032Z,56.23
2018-11-25T20:09:46.455Z,57.20
2018-11-25T20:12:13.899Z,55.43
2018-11-25T20:14:41.301Z,56.77
2018-11-25T20:17:24.070Z,55.07
2018-11-25T20:19:51.503Z,54.73
2018-11-25T20:22:18.954Z,52.37
2018-11-25T20:24:46.369Z,56.67
2018-11-25T20:27:13.817Z,53.73
2018-11-25T20:29:41.255Z,60.23
2018-11-25T20:32:08.708Z,60.27
2018-11-25T20:34:36.139Z,57.73
2018-11-25T20:37:03.624Z,54.07
2018-11-25T20:39:31.008Z,61.87
2018-11-25T20:41:58.454Z,57.63
2018-11-25T20:44:25.861Z,61.03
2018-11-25T20:47:05.088Z,58.17
2018-11-25T20:49:32.505Z,61.03
2018-11-25T20:51:59.975Z,57.83
2018-11-25T20:54:27.381Z,60.20
2018-11-25T20:56:54.815Z,56.80
2018-11-25T20:59:22.231Z,55.23
2018-11-25T21:01:49.667Z,56.60
2018-11-25T21:04:17.109Z,54.57
2018-11-25T21:06:44.578Z,54.40
2018-11-25T21:09:11.953Z,53.20
2018-11-25T21:11:39.406Z,56.17
2018-11-25T21:14:06.824Z,54.90
2018-11-25T21:16:34.260Z,52.73
2018-11-25T21:19:02.240Z,55.23
2018-11-25T21:21:29.612Z,55.67
2018-11-25T21:23:57.064Z,56.40
2018-11-25T21:26:24.458Z,53.00
2018-11-25T21:28:51.938Z,58.03
2018-11-25T21:31:19.344Z,51.70
2018-11-25T21:33:46.782Z,50.63
2018-11-25T21:36:14.215Z,51.33
2018-11-25T21:38:41.663Z,51.30
2018-11-25T21:41:09.093Z,52.37
2018-11-25T21:43:37.329Z,55.20
2018-11-25T21:46:07.516Z,48.70
2018-11-25T21:48:34.956Z,49.17
2018-11-25T21:51:02.375Z,52.20
2018-11-25T21:53:29.784Z,51.27
2018-11-25T21:55:57.216Z,53.00
2018-11-25T21:58:28.774Z,51.93
2018-11-25T22:00:53.990Z,53.57
2018-11-25T22:03:21.389Z,51.07
2018-11-25T22:05:48.835Z,51.40
2018-11-25T22:08:16.239Z,56.07
2018-11-25T22:10:43.688Z,52.50
2018-11-25T22:13:11.153Z,52.67
2018-11-25T22:15:38.570Z,54.20
2018-11-25T22:18:06.022Z,55.07
2018-11-25T22:20:33.445Z,55.03
2018-11-25T22:23:00.940Z,56.20
2018-11-25T22:25:28.353Z,55.40
2018-11-25T22:27:55.778Z,56.63
2018-11-25T22:30:23.193Z,60.07
2018-11-25T22:32:50.651Z,58.20
2018-11-25T22:35:18.162Z,58.67
2018-11-25T22:37:45.583Z,58.63
2018-11-25T22:40:13.124Z,56.77
2018-11-25T22:42:40.536Z,61.60
2018-11-25T22:45:07.985Z,61.03
2018-11-25T22:47:35.397Z,61.00
2018-11-25T22:50:02.837Z,59.53
2018-11-25T22:52:30.281Z,64.40
2018-11-25T22:54:57.687Z,63.80
2018-11-25T22:57:27.973Z,64.50
2018-11-25T22:59:55.385Z,62.67
2018-11-25T23:02:22.824Z,59.00
2018-11-25T23:05:14.736Z,65.00
2018-11-25T23:07:42.289Z,61.93
2018-11-25T23:10:09.703Z,64.63
2018-11-25T23:12:37.482Z,59.13
2018-11-25T23:15:07.491Z,64.90
2018-11-25T23:17:34.939Z,64.07
2018-11-25T23:20:02.364Z,57.80
2018-11-25T23:22:29.806Z,61.43
2018-11-25T23:24:57.235Z,60.33
2018-11-25T23:27:24.637Z,59.80
2018-11-25T23:29:52.089Z,61.77
2018-11-25T23:32:19.541Z,61.33
2018-11-25T23:34:54.870Z,57.80
2018-11-25T23:37:22.314Z,58.27
2018-11-25T23:39:49.726Z,60.57
2018-11-25T23:42:17.191Z,59.53
2018-11-25T23:44:44.606Z,60.87
2018-11-25T23:47:12.030Z,61.37
2018-11-25T23:49:39.462Z,57.53
2018-11-25T23:52:06.885Z,58.63
2018-11-25T23:54:37.301Z,62.33
2018-11-25T23:57:04.722Z,59.97
2018-11-25T23:59:32.162Z,60.37
